createdAt,value
2022-12-12T00:01:30.210Z,22.67
2022-12-12T00:03:59.099Z,22.73
2022-12-12T00:06:29.529Z,24.20
2022-12-12T00:08:57.907Z,23.00
2022-12-12T00:11:27.298Z,24.23
2022-12-12T00:13:55.699Z,21.57
2022-12-12T00:16:25.613Z,23.77
2022-12-12T00:18:54.303Z,23.10
2022-12-12T00:21:26.316Z,22.37
2022-12-12T00:23:56.326Z,23.40
2022-12-12T00:26:27.419Z,22.67
2022-12-12T00:28:56.159Z,21.57
2022-12-12T00:31:24.689Z,23.00
2022-12-12T00:33:53.184Z,22.90
2022-12-12T00:36:24.781Z,22.53
2022-12-12T00:38:55.950Z,23.40
2022-12-12T00:41:24.728Z,22.07
2022-12-12T00:43:53.173Z,23.53
2022-12-12T00:46:24.085Z,23.00
2022-12-12T00:48:58.525Z,22.63
2022-12-12T00:51:29.647Z,21.97
2022-12-12T00:54:00.837Z,22.97
2022-12-12T00:56:30.894Z,22.87
2022-12-12T00:58:59.525Z,21.83
2022-12-12T01:01:30.587Z,21.27
2022-12-12T01:03:59.855Z,21.57
2022-12-12T01:06:28.951Z,23.17
2022-12-12T01:08:59.056Z,21.77
2022-12-12T01:11:27.769Z,22.23
2022-12-12T01:13:56.778Z,21.77
2022-12-12T01:16:26.099Z,22.63
2022-12-12T01:18:54.565Z,21.83
2022-12-12T01:21:23.324Z,22.20
2022-12-12T01:23:51.959Z,23.23
2022-12-12T01:26:24.262Z,22.93
2022-12-12T01:28:53.780Z,22.37
2022-12-12T01:31:22.840Z,22.13
2022-12-12T01:33:51.232Z,22.50
2022-12-12T01:36:23.486Z,22.37
2022-12-12T01:38:56.891Z,22.93
2022-12-12T01:41:27.391Z,20.73
2022-12-12T01:43:56.187Z,23.50
2022-12-12T01:46:52.131Z,22.60
2022-12-12T01:49:25.847Z,20.77
2022-12-12T01:51:58.887Z,20.53
2022-12-12T01:54:31.749Z,20.37
2022-12-12T01:57:05.218Z,20.70
2022-12-12T01:59:35.818Z,21.00
2022-12-12T02:02:04.300Z,21.13
2022-12-12T02:04:33.007Z,21.37
2022-12-12T02:07:01.572Z,18.83
2022-12-12T02:09:29.951Z,20.70
2022-12-12T02:12:00.551Z,20.40
2022-12-12T02:14:33.188Z,20.40
2022-12-12T02:17:25.445Z,19.73
2022-12-12T02:20:45.746Z,20.93
2022-12-12T02:23:55.270Z,20.53
2022-12-12T02:27:20.792Z,20.03
2022-12-12T02:30:13.405Z,19.73
2022-12-12T02:33:19.908Z,20.90
2022-12-12T02:36:04.266Z,19.57
2022-12-12T02:38:46.632Z,21.00
2022-12-12T02:41:22.144Z,19.63
2022-12-12T02:44:06.342Z,19.47
2022-12-12T02:46:42.241Z,20.50
2022-12-12T02:49:17.961Z,22.70
2022-12-12T02:51:47.388Z,21.07
2022-12-12T02:54:17.932Z,20.53
2022-12-12T02:56:51.713Z,21.23
2022-12-12T02:59:27.681Z,21.73
2022-12-12T03:02:33.076Z,21.57
2022-12-12T03:05:43.985Z,20.17
2022-12-12T03:08:29.309Z,20.73
2022-12-12T03:11:02.350Z,20.57
2022-12-12T03:13:43.618Z,21.57
2022-12-12T03:16:26.459Z,20.07
2022-12-12T03:19:00.195Z,20.17
2022-12-12T03:21:40.826Z,21.20
2022-12-12T03:24:18.051Z,20.57
2022-12-12T03:26:52.202Z,20.30
2022-12-12T03:29:27.324Z,20.73
2022-12-12T03:32:02.010Z,20.93
2022-12-12T03:34:37.565Z,21.10
2022-12-12T03:37:12.900Z,19.63
2022-12-12T03:39:47.526Z,18.07
2022-12-12T03:42:22.176Z,20.87
2022-12-12T03:44:54.599Z,19.83
2022-12-12T03:47:28.913Z,20.97
2022-12-12T03:50:03.606Z,21.07
2022-12-12T03:52:38.966Z,21.23
2022-12-12T03:55:14.583Z,20.80
2022-12-12T03:57:52.108Z,21.27
2022-12-12T04:00:21.064Z,22.50
2022-12-12T04:02:56.332Z,22.93
2022-12-12T04:05:29.871Z,22.40
2022-12-12T04:08:09.032Z,21.27
2022-12-12T04:11:05.208Z,20.37
2022-12-12T04:13:44.471Z,20.40
2022-12-12T04:16:16.795Z,20.23
2022-12-12T04:18:54.538Z,21.47
2022-12-12T04:21:54.135Z,21.23
2022-12-12T04:24:31.401Z,20.60
2022-12-12T04:27:08.524Z,19.53
2022-12-12T04:29:42.737Z,20.97
2022-12-12T04:32:18.438Z,19.90
2022-12-12T04:34:53.430Z,20.93
2022-12-12T04:37:33.997Z,21.47
2022-12-12T04:40:09.235Z,19.43
2022-12-12T04:42:44.008Z,19.97
2022-12-12T04:45:16.767Z,19.87
2022-12-12T04:47:49.521Z,19.13
2022-12-12T04:50:18.591Z,19.80
2022-12-12T04:52:51.698Z,18.70
2022-12-12T04:55:25.120Z,20.33
2022-12-12T04:57:55.555Z,18.07
2022-12-12T05:00:25.519Z,20.27
2022-12-12T05:03:03.689Z,20.77
2022-12-12T05:05:41.491Z,20.10
2022-12-12T05:08:16.054Z,18.97
2022-12-12T05:10:48.244Z,18.73
2022-12-12T05:13:19.819Z,19.80
2022-12-12T05:15:49.910Z,18.57
2022-12-12T05:18:18.755Z,19.97
2022-12-12T05:20:47.093Z,19.37
2022-12-12T05:23:15.624Z,18.77
2022-12-12T05:25:45.265Z,19.13
2022-12-12T05:28:13.568Z,18.07
2022-12-12T05:30:42.048Z,19.37
2022-12-12T05:33:10.291Z,17.53
2022-12-12T05:35:38.580Z,18.27
2022-12-12T05:38:06.828Z,19.30
2022-12-12T05:40:44.934Z,18.90
2022-12-12T05:43:14.614Z,19.53
2022-12-12T05:45:43.026Z,19.20
2022-12-12T05:48:11.344Z,17.83
2022-12-12T05:50:39.555Z,19.60
2022-12-12T05:53:08.094Z,18.80
2022-12-12T05:55:36.938Z,18.47
2022-12-12T05:58:05.236Z,17.03
2022-12-12T06:00:34.922Z,18.03
2022-12-12T06:03:03.172Z,16.57
2022-12-12T06:05:31.440Z,14.33
2022-12-12T06:07:59.801Z,14.27
2022-12-12T06:10:28.120Z,13.40
2022-12-12T06:12:56.362Z,15.77
2022-12-12T06:15:24.925Z,14.27
2022-12-12T06:17:56.980Z,15.57
2022-12-12T06:20:25.440Z,15.77
2022-12-12T06:22:54.140Z,16.57
2022-12-12T06:25:22.595Z,16.43
2022-12-12T06:27:51.040Z,17.00
2022-12-12T06:30:19.560Z,16.47
2022-12-12T06:32:47.890Z,16.83
2022-12-12T06:35:17.705Z,13.70
2022-12-12T06:37:45.930Z,14.23
2022-12-12T06:40:14.807Z,13.17
2022-12-12T06:42:48.253Z,12.50
2022-12-12T06:45:17.401Z,12.63
2022-12-12T06:47:45.715Z,13.47
2022-12-12T06:50:15.832Z,14.27
2022-12-12T06:52:47.741Z,14.60
2022-12-12T06:55:16.121Z,15.37
2022-12-12T06:57:44.451Z,14.60
2022-12-12T07:00:13.981Z,16.90
2022-12-12T07:02:42.360Z,17.90
2022-12-12T07:05:11.382Z,19.27
2022-12-12T07:07:39.830Z,19.40
2022-12-12T07:10:10.333Z,18.43
2022-12-12T07:12:39.700Z,18.77
2022-12-12T07:15:08.893Z,20.00
2022-12-12T07:17:37.251Z,20.00
2022-12-12T07:20:06.234Z,18.90
2022-12-12T07:22:34.679Z,18.90
2022-12-12T07:25:02.949Z,20.20
2022-12-12T07:27:32.934Z,19.83
2022-12-12T07:30:01.200Z,20.13
2022-12-12T07:32:29.432Z,19.80
2022-12-12T07:34:58.380Z,19.47
2022-12-12T07:37:27.015Z,19.77
2022-12-12T07:39:55.340Z,20.10
2022-12-12T07:42:23.605Z,19.87
2022-12-12T07:44:53.315Z,20.07
2022-12-12T07:47:21.676Z,20.17
2022-12-12T07:49:50.048Z,19.83
2022-12-12T07:52:18.349Z,18.70
2022-12-12T07:54:46.586Z,19.00
2022-12-12T07:57:15.203Z,18.33
2022-12-12T07:59:43.736Z,20.53
2022-12-12T08:02:13.534Z,19.97
2022-12-12T08:04:41.926Z,18.90
2022-12-12T08:07:10.248Z,19.47
2022-12-12T08:09:38.946Z,20.50
2022-12-12T08:12:08.237Z,19.90
2022-12-12T08:14:38.077Z,19.90
2022-12-12T08:17:06.602Z,19.23
2022-12-12T08:19:36.279Z,20.60
2022-12-12T08:22:04.728Z,18.70
2022-12-12T08:24:33.055Z,18.17
2022-12-12T08:27:01.832Z,19.20
2022-12-12T08:29:30.176Z,18.03
2022-12-12T08:31:58.674Z,17.83
2022-12-12T08:34:27.379Z,17.00
2022-12-12T08:36:57.055Z,16.67
2022-12-12T08:39:25.378Z,15.80
2022-12-12T08:41:53.726Z,15.13
2022-12-12T08:44:23.048Z,15.80
2022-12-12T08:46:51.515Z,16.10
2022-12-12T08:49:20.225Z,15.13
2022-12-12T08:51:48.677Z,14.87
2022-12-12T08:54:18.900Z,15.13
2022-12-12T08:56:47.568Z,15.70
2022-12-12T08:59:16.237Z,14.93
2022-12-12T09:01:44.769Z,13.87
2022-12-12T09:04:14.689Z,15.87
2022-12-12T09:06:43.678Z,16.57
2022-12-12T09:09:11.993Z,15.53
2022-12-12T09:11:41.727Z,15.73
2022-12-12T09:14:10.719Z,16.10
2022-12-12T09:16:39.066Z,15.67
2022-12-12T09:19:07.515Z,17.00
2022-12-12T09:21:35.978Z,16.17
2022-12-12T09:24:08.024Z,17.00
2022-12-12T09:26:36.873Z,18.17
2022-12-12T09:29:07.045Z,19.60
2022-12-12T09:31:35.516Z,17.67
2022-12-12T09:34:03.961Z,18.40
2022-12-12T09:36:32.329Z,18.47
2022-12-12T09:39:00.658Z,18.93
2022-12-12T09:41:30.808Z,18.53
2022-12-12T09:44:03.588Z,19.10
2022-12-12T09:46:38.620Z,20.30
2022-12-12T09:49:15.928Z,19.27
2022-12-12T09:51:48.762Z,20.50
2022-12-12T09:54:20.581Z,18.97
2022-12-12T09:57:12.231Z,19.33
2022-12-12T09:59:45.732Z,20.17
2022-12-12T10:02:38.747Z,19.77
2022-12-12T10:05:21.694Z,19.83
2022-12-12T10:08:00.564Z,20.10
2022-12-12T10:10:33.086Z,21.13
2022-12-12T10:13:06.199Z,19.27
2022-12-12T10:15:40.059Z,21.63
2022-12-12T10:18:17.645Z,20.40
2022-12-12T10:20:51.634Z,20.87
2022-12-12T10:23:30.464Z,20.57
2022-12-12T10:26:03.305Z,22.10
2022-12-12T10:28:33.843Z,21.90
2022-12-12T10:31:30.237Z,20.77
2022-12-12T10:34:23.541Z,21.83
2022-12-12T10:37:11.047Z,22.00
2022-12-12T10:39:51.027Z,22.40
2022-12-12T10:42:28.084Z,21.17
2022-12-12T10:45:19.420Z,22.53
2022-12-12T10:47:49.036Z,23.30
2022-12-12T10:50:28.534Z,21.90
2022-12-12T10:52:56.888Z,23.70
2022-12-12T10:55:41.877Z,22.77
2022-12-12T10:58:10.283Z,21.97
2022-12-12T11:00:41.798Z,22.57
2022-12-12T11:03:22.665Z,22.30
2022-12-12T11:05:52.628Z,24.00
2022-12-12T11:08:27.175Z,21.70
2022-12-12T11:11:08.641Z,22.07
2022-12-12T11:13:50.313Z,22.80
2022-12-12T11:16:22.131Z,23.07
2022-12-12T11:19:05.054Z,22.70
2022-12-12T11:21:37.492Z,22.20
2022-12-12T11:24:10.649Z,23.63
2022-12-12T11:26:46.856Z,23.27
2022-12-12T11:29:35.510Z,22.87
2022-12-12T11:32:05.024Z,22.80
2022-12-12T11:34:36.516Z,22.03
2022-12-12T11:37:06.271Z,22.33
2022-12-12T11:39:43.663Z,23.93
2022-12-12T11:42:30.372Z,22.57
2022-12-12T11:45:02.626Z,22.00
2022-12-12T11:47:38.669Z,23.20
2022-12-12T11:50:23.779Z,21.70
2022-12-12T11:52:56.765Z,21.43
2022-12-12T11:55:37.643Z,19.90
2022-12-12T11:58:20.516Z,20.53
2022-12-12T12:00:59.159Z,20.10
2022-12-12T12:03:40.067Z,21.73
2022-12-12T12:06:37.817Z,20.77
2022-12-12T12:09:24.493Z,20.80
2022-12-12T12:12:05.284Z,19.73
2022-12-12T12:15:17.669Z,19.73
2022-12-12T12:18:13.028Z,19.97
2022-12-12T12:21:07.411Z,18.27
2022-12-12T12:23:50.271Z,18.17
2022-12-12T12:26:41.231Z,20.37
2022-12-12T12:29:33.961Z,18.17
2022-12-12T12:32:12.599Z,19.27
2022-12-12T12:34:56.255Z,18.53
2022-12-12T12:37:43.521Z,17.50
2022-12-12T12:40:28.216Z,17.80
2022-12-12T12:43:18.259Z,16.57
2022-12-12T12:45:54.042Z,16.30
2022-12-12T12:48:29.711Z,18.23
2022-12-12T12:51:07.179Z,17.27
2022-12-12T12:53:41.877Z,15.97
2022-12-12T12:56:26.227Z,15.07
2022-12-12T12:59:01.564Z,15.20
2022-12-12T13:01:36.461Z,15.67
2022-12-12T13:04:15.462Z,15.70
2022-12-12T13:06:49.368Z,15.90
2022-12-12T13:09:29.673Z,15.77
2022-12-12T13:12:05.606Z,14.90
2022-12-12T13:14:49.119Z,15.90
2022-12-12T13:17:21.783Z,15.33
2022-12-12T13:19:53.486Z,15.93
2022-12-12T13:22:34.558Z,16.97
2022-12-12T13:25:14.983Z,16.67
2022-12-12T13:27:47.940Z,16.37
2022-12-12T13:30:24.184Z,15.63
2022-12-12T13:33:12.094Z,15.87
2022-12-12T13:35:47.006Z,15.93
2022-12-12T13:38:21.702Z,16.13
2022-12-12T13:40:58.670Z,15.53
2022-12-12T13:43:32.035Z,16.37
2022-12-12T13:46:40.270Z,15.83
2022-12-12T13:49:28.435Z,16.40
2022-12-12T13:52:27.880Z,15.20
2022-12-12T13:55:22.661Z,15.83
2022-12-12T13:58:35.534Z,15.23
2022-12-12T14:01:32.043Z,15.73
2022-12-12T14:04:03.707Z,16.40
2022-12-12T14:06:32.793Z,17.50
2022-12-12T14:09:01.422Z,16.13
2022-12-12T14:11:34.901Z,15.93
2022-12-12T14:14:17.822Z,16.23
2022-12-12T14:16:56.617Z,14.67
2022-12-12T14:19:37.802Z,14.83
2022-12-12T14:22:06.123Z,15.40
2022-12-12T14:25:07.206Z,16.13
2022-12-12T14:28:15.777Z,15.83
2022-12-12T14:30:50.426Z,14.77
2022-12-12T14:34:14.137Z,14.20
2022-12-12T14:37:22.913Z,15.27
2022-12-12T14:40:14.864Z,14.60
2022-12-12T14:43:19.385Z,14.03
2022-12-12T14:45:40.895Z,14.77
2022-12-12T14:48:22.843Z,14.00
2022-12-12T14:51:00.234Z,13.50
2022-12-12T14:53:35.442Z,14.50
2022-12-12T14:56:09.588Z,14.67
2022-12-12T14:58:42.061Z,13.37
2022-12-12T15:01:10.925Z,13.70
2022-12-12T15:03:44.033Z,14.00
2022-12-12T15:06:37.011Z,13.30
2022-12-12T15:09:17.846Z,13.70
2022-12-12T15:11:47.191Z,14.17
2022-12-12T15:14:26.950Z,14.17
2022-12-12T15:17:01.760Z,13.40
2022-12-12T15:19:35.655Z,13.87
2022-12-12T15:22:05.783Z,13.90
2022-12-12T15:24:40.643Z,13.80
2022-12-12T15:27:09.187Z,14.57
2022-12-12T15:29:39.216Z,13.23
2022-12-12T15:32:17.898Z,14.60
2022-12-12T15:34:49.920Z,14.77
2022-12-12T15:37:26.140Z,14.70
2022-12-12T15:40:21.094Z,14.50
2022-12-12T15:42:55.492Z,15.53
2022-12-12T15:45:28.986Z,15.30
2022-12-12T15:47:58.018Z,15.60
2022-12-12T15:50:31.083Z,15.37
2022-12-12T15:53:07.842Z,16.60
2022-12-12T15:55:37.914Z,16.37
2022-12-12T15:58:06.302Z,16.57
2022-12-12T16:00:40.470Z,17.50
2022-12-12T16:03:23.466Z,18.10
2022-12-12T16:06:06.506Z,17.23
2022-12-12T16:08:48.105Z,17.40
2022-12-12T16:11:43.092Z,17.07
2022-12-12T16:14:42.793Z,16.50
2022-12-12T16:17:14.714Z,16.10
2022-12-12T16:19:56.495Z,15.60
2022-12-12T16:22:35.753Z,15.93
2022-12-12T16:25:19.935Z,16.83
2022-12-12T16:27:57.706Z,15.07
2022-12-12T16:30:27.275Z,16.00
2022-12-12T16:32:56.039Z,16.33
2022-12-12T16:35:26.056Z,16.43
2022-12-12T16:37:54.445Z,16.17
2022-12-12T16:40:23.377Z,16.53
2022-12-12T16:42:56.974Z,15.57
2022-12-12T16:45:25.384Z,16.53
2022-12-12T16:47:53.895Z,17.93
2022-12-12T16:50:22.473Z,16.07
2022-12-12T16:52:50.775Z,17.00
2022-12-12T16:55:24.599Z,16.93
2022-12-12T16:57:54.276Z,17.07
2022-12-12T17:00:22.838Z,16.90
2022-12-12T17:02:51.134Z,17.60
2022-12-12T17:05:23.743Z,17.17
2022-12-12T17:07:53.439Z,17.57
2022-12-12T17:10:24.587Z,17.27
2022-12-12T17:12:55.475Z,17.70
2022-12-12T17:15:27.662Z,18.83
2022-12-12T17:17:56.861Z,18.47
2022-12-12T17:20:26.261Z,19.70
2022-12-12T17:22:55.601Z,18.40
2022-12-12T17:25:24.832Z,19.47
2022-12-12T17:27:54.734Z,20.47
2022-12-12T17:30:23.356Z,20.67
2022-12-12T17:35:37.802Z,21.43
2022-12-12T17:38:09.182Z,19.87
2022-12-12T17:40:44.387Z,20.07
2022-12-12T17:43:14.192Z,20.90
2022-12-12T17:45:42.539Z,20.87
2022-12-12T17:48:10.959Z,21.53
2022-12-12T17:50:41.771Z,21.10
2022-12-12T17:53:10.606Z,20.17
2022-12-12T17:55:51.715Z,22.50
2022-12-12T17:58:28.001Z,22.60
2022-12-12T18:00:57.985Z,20.80
2022-12-12T18:03:26.421Z,21.33
2022-12-12T18:05:54.671Z,22.73
2022-12-12T18:08:23.017Z,21.90
2022-12-12T18:10:51.366Z,21.13
2022-12-12T18:13:21.090Z,21.20
2022-12-12T18:15:56.269Z,21.60
2022-12-12T18:18:26.347Z,22.10
2022-12-12T18:20:54.778Z,23.10
2022-12-12T18:23:23.375Z,21.03
2022-12-12T18:25:51.595Z,23.03
2022-12-12T18:28:21.271Z,23.00
2022-12-12T18:30:51.054Z,22.00
2022-12-12T18:33:19.422Z,21.87
2022-12-12T18:35:47.672Z,23.03
2022-12-12T18:38:16.942Z,23.07
2022-12-12T18:40:45.244Z,24.00
2022-12-12T18:43:13.490Z,23.83
2022-12-12T18:45:43.093Z,22.37
2022-12-12T18:48:11.480Z,22.33
2022-12-12T18:50:39.778Z,21.83
2022-12-12T18:53:08.630Z,22.43
2022-12-12T18:55:41.838Z,22.20
2022-12-12T18:58:10.933Z,21.30
2022-12-12T19:00:40.302Z,21.50
2022-12-12T19:03:10.505Z,21.13
2022-12-12T19:05:43.080Z,23.57
2022-12-12T19:08:14.658Z,23.40
2022-12-12T19:10:42.874Z,23.40
2022-12-12T19:13:11.231Z,23.73
2022-12-12T19:15:40.683Z,23.23
2022-12-12T19:18:10.644Z,24.63
2022-12-12T19:20:38.972Z,24.30
2022-12-12T19:23:07.285Z,24.33
2022-12-12T19:25:42.602Z,25.37
2022-12-12T19:28:12.362Z,25.97
2022-12-12T19:30:44.080Z,25.93
2022-12-12T19:33:13.792Z,25.07
2022-12-12T19:35:42.104Z,27.30
2022-12-12T19:38:10.495Z,25.30
2022-12-12T19:40:38.896Z,25.37
2022-12-12T19:43:07.168Z,24.87
2022-12-12T19:45:35.566Z,26.30
2022-12-12T19:48:03.848Z,25.77
2022-12-12T19:50:33.527Z,25.33
2022-12-12T19:53:01.821Z,24.57
2022-12-12T19:55:30.167Z,25.30
2022-12-12T19:58:00.486Z,25.07
2022-12-12T20:00:28.853Z,26.83
2022-12-12T20:02:58.318Z,26.73
2022-12-12T20:05:26.695Z,27.57
2022-12-12T20:07:57.825Z,28.57
2022-12-12T20:10:26.084Z,27.30
2022-12-12T20:12:58.545Z,27.00
2022-12-12T20:15:27.524Z,26.30
2022-12-12T20:18:00.189Z,26.63
2022-12-12T20:20:28.794Z,25.00
2022-12-12T20:22:58.534Z,27.03
2022-12-12T20:25:26.891Z,26.10
2022-12-12T20:27:55.203Z,26.87
2022-12-12T20:30:23.425Z,25.80
2022-12-12T20:32:52.080Z,26.70
2022-12-12T20:35:20.399Z,28.13
2022-12-12T20:37:48.891Z,27.37
2022-12-12T20:40:18.803Z,27.13
2022-12-12T20:42:54.980Z,26.60
2022-12-12T20:45:25.541Z,27.70
2022-12-12T20:47:53.963Z,30.97
2022-12-12T20:50:22.387Z,31.23
2022-12-12T20:52:50.726Z,27.37
2022-12-12T20:55:20.338Z,30.10
2022-12-12T20:57:48.606Z,27.27
2022-12-12T21:00:17.534Z,27.53
2022-12-12T21:02:45.812Z,29.53
2022-12-12T21:05:14.462Z,30.83
2022-12-12T21:07:43.058Z,29.60
2022-12-12T21:10:11.531Z,29.30
2022-12-12T21:12:41.282Z,28.70
2022-12-12T21:15:10.743Z,28.97
2022-12-12T21:17:39.072Z,29.73
2022-12-12T21:20:09.011Z,31.77
2022-12-12T21:22:37.311Z,31.73
2022-12-12T21:25:06.366Z,30.80
2022-12-12T21:27:34.646Z,32.57
2022-12-12T21:30:05.654Z,31.53
2022-12-12T21:32:34.097Z,31.10
2022-12-12T21:35:02.365Z,29.80
2022-12-12T21:37:31.916Z,31.00
2022-12-12T21:40:02.923Z,31.40
2022-12-12T21:42:31.359Z,32.00
2022-12-12T21:44:59.988Z,30.20
2022-12-12T21:47:29.789Z,31.80
2022-12-12T21:49:58.087Z,32.13
2022-12-12T21:52:26.314Z,32.10
2022-12-12T21:54:55.008Z,32.67
2022-12-12T21:57:25.089Z,32.33
2022-12-12T21:59:53.672Z,31.70
2022-12-12T22:02:22.033Z,32.50
2022-12-12T22:04:51.746Z,33.40
2022-12-12T22:07:20.878Z,34.27
2022-12-12T22:09:57.441Z,35.57
2022-12-12T22:12:37.491Z,33.83
2022-12-12T22:15:06.993Z,36.27
2022-12-12T22:17:35.274Z,36.63
2022-12-12T22:20:05.490Z,37.97
2022-12-12T22:22:33.904Z,38.20
2022-12-12T22:25:02.190Z,39.27
2022-12-12T22:27:31.047Z,39.80
2022-12-12T22:29:59.379Z,36.50
2022-12-12T22:32:29.360Z,37.73
2022-12-12T22:34:58.567Z,37.80
2022-12-12T22:37:28.237Z,39.50
2022-12-12T22:39:56.534Z,39.10
2022-12-12T22:42:24.868Z,39.40
2022-12-12T22:44:53.486Z,37.17
2022-12-12T22:47:23.796Z,38.80
2022-12-12T22:49:52.952Z,35.70
2022-12-12T22:52:21.232Z,37.50
2022-12-12T22:54:50.855Z,36.83
2022-12-12T22:57:19.227Z,39.23
2022-12-12T22:59:47.627Z,37.43
2022-12-12T23:02:21.526Z,37.73
2022-12-12T23:04:53.137Z,38.20
2022-12-12T23:07:21.527Z,37.93
2022-12-12T23:09:54.254Z,38.37
2022-12-12T23:12:23.288Z,36.13
2022-12-12T23:14:51.499Z,37.30
2022-12-12T23:17:19.880Z,39.50
2022-12-12T23:19:48.367Z,38.43
2022-12-12T23:22:16.593Z,35.73
2022-12-12T23:24:45.111Z,37.20
2022-12-12T23:27:14.776Z,38.00
2022-12-12T23:29:43.611Z,37.93
2022-12-12T23:32:12.208Z,38.47
2022-12-12T23:34:40.838Z,40.13
2022-12-12T23:37:09.459Z,37.57
2022-12-12T23:39:37.932Z,35.90
2022-12-12T23:42:06.398Z,38.33
2022-12-12T23:44:36.114Z,38.53
2022-12-12T23:47:04.373Z,36.93
2022-12-12T23:49:32.613Z,40.50
2022-12-12T23:52:02.421Z,38.80
2022-12-12T23:54:33.689Z,38.40
2022-12-12T23:57:03.308Z,36.53
2022-12-12T23:59:32.202Z,39.13
